Time;durP1;ratioP1;P1;durP2;ratioP2;P2;SDS_P1;SDS_P2;PMS_P1;PMS_P2;Temp;Humidity;BMP_temperature;BMP_pressure;BME280_temperature;BME280_humidity;BME280_pressure;Samples;Min_cycle;Max_cycle;Signal;HPM_P1;HPM_P2
2023/12/15 00:00:35;;;;;;;1.88;1.38;;;12.00;99.90;;;;;;5031748;28;20021;-44
2023/12/15 00:03:01;;;;;;;2.30;1.40;;;12.00;99.90;;;;;;5032329;28;20018;-44
2023/12/15 00:05:27;;;;;;;1.50;1.40;;;12.00;99.90;;;;;;5032556;28;20112;-43
2023/12/15 00:07:52;;;;;;;1.63;1.40;;;12.00;99.90;;;;;;5032096;28;20456;-44
2023/12/15 00:10:19;;;;;;;1.38;1.13;;;12.00;99.90;;;;;;5031411;28;20029;-43
2023/12/15 00:12:44;;;;;;;1.60;1.20;;;12.00;99.90;;;;;;5031281;28;20395;-43
2023/12/15 00:15:10;;;;;;;1.20;1.10;;;12.00;99.90;;;;;;5030886;28;20044;-44
2023/12/15 00:17:36;;;;;;;1.40;1.00;;;12.00;99.90;;;;;;5030792;28;20059;-44
2023/12/15 00:20:01;;;;;;;1.38;1.00;;;12.00;99.90;;;;;;5031095;28;20018;-41
2023/12/15 00:22:27;;;;;;;1.42;1.00;;;12.00;99.90;;;;;;5031403;28;20323;-43
2023/12/15 00:24:52;;;;;;;1.65;1.10;;;12.00;99.90;;;;;;5032777;28;20031;-43
2023/12/15 00:27:18;;;;;;;2.10;1.20;;;12.00;99.90;;;;;;5036625;28;20357;-43
2023/12/15 00:29:44;;;;;;;1.70;1.30;;;12.00;99.90;;;;;;5035958;28;20060;-44
2023/12/15 00:32:09;;;;;;;1.25;1.05;;;12.00;99.90;;;;;;5035870;28;20399;-41
2023/12/15 00:34:35;;;;;;;1.77;1.13;;;12.00;99.90;;;;;;5035350;28;20071;-44
2023/12/15 00:37:00;;;;;;;1.05;0.90;;;12.00;99.90;;;;;;5034833;28;20661;-44
2023/12/15 00:39:26;;;;;;;1.45;1.00;;;12.00;99.90;;;;;;5034869;28;20021;-43
2023/12/15 00:41:51;;;;;;;1.67;1.17;;;12.00;99.90;;;;;;5034861;28;20120;-43
2023/12/15 00:44:17;;;;;;;1.90;1.05;;;12.00;99.90;;;;;;5034811;28;20030;-44
2023/12/15 00:46:43;;;;;;;1.33;1.10;;;12.00;99.90;;;;;;5034627;28;20036;-44
2023/12/15 00:49:08;;;;;;;1.73;1.20;;;12.00;99.90;;;;;;5035145;28;20029;-44
2023/12/15 00:51:34;;;;;;;1.00;0.90;;;11.90;99.90;;;;;;5036894;28;20445;-44
2023/12/15 00:54:00;;;;;;;1.10;1.00;;;12.00;99.90;;;;;;5035697;28;20052;-43
2023/12/15 00:56:26;;;;;;;1.50;0.93;;;12.00;99.90;;;;;;5034434;28;20495;-43
2023/12/15 00:58:51;;;;;;;1.27;1.00;;;11.90;99.90;;;;;;5034493;28;20156;-44
2023/12/15 01:01:17;;;;;;;1.20;0.85;;;12.00;99.90;;;;;;5034357;28;20022;-44
2023/12/15 01:03:43;;;;;;;0.93;0.82;;;12.00;99.90;;;;;;5034514;28;20025;-44
2023/12/15 01:06:09;;;;;;;1.83;1.20;;;11.90;99.90;;;;;;5034440;28;20571;-43
2023/12/15 01:08:34;;;;;;;1.70;0.90;;;11.90;99.90;;;;;;5034323;28;20545;-42
2023/12/15 01:11:00;;;;;;;1.25;1.15;;;12.00;99.90;;;;;;5034246;28;20037;-44
2023/12/15 01:13:25;;;;;;;0.80;0.70;;;11.90;99.90;;;;;;5034322;28;20048;-44
2023/12/15 01:15:51;;;;;;;1.13;0.93;;;12.00;99.90;;;;;;5034028;28;20071;-44
2023/12/15 01:18:17;;;;;;;1.20;1.00;;;12.00;99.90;;;;;;5035500;28;20029;-45
2023/12/15 01:20:42;;;;;;;0.93;0.80;;;11.90;99.90;;;;;;5032708;28;20134;-44
2023/12/15 01:23:08;;;;;;;1.52;1.00;;;11.90;99.90;;;;;;5034017;28;20034;-44
2023/12/15 01:25:34;;;;;;;0.77;0.70;;;11.90;99.90;;;;;;5034055;28;20040;-44
2023/12/15 01:27:59;;;;;;;1.00;0.90;;;12.00;99.90;;;;;;5033670;28;20438;-43
2023/12/15 01:30:25;;;;;;;1.23;1.05;;;12.00;99.90;;;;;;5035593;28;20033;-43
2023/12/15 01:32:51;;;;;;;1.23;1.00;;;11.90;99.90;;;;;;5035738;28;20033;-44
2023/12/15 01:35:16;;;;;;;1.02;0.93;;;11.90;99.90;;;;;;5034902;28;20025;-44
2023/12/15 01:37:42;;;;;;;0.95;0.80;;;12.00;99.90;;;;;;5034627;28;20116;-44
2023/12/15 01:40:08;;;;;;;1.00;0.90;;;11.90;99.90;;;;;;5034656;28;20022;-44
2023/12/15 01:42:34;;;;;;;1.50;0.98;;;11.90;99.90;;;;;;5034599;28;20498;-44
2023/12/15 01:45:00;;;;;;;1.33;0.90;;;11.90;99.90;;;;;;5034534;28;20034;-43
2023/12/15 01:47:27;;;;;;;1.23;1.02;;;11.90;99.90;;;;;;5035215;28;20031;-44
2023/12/15 01:49:53;;;;;;;1.73;1.13;;;11.90;99.90;;;;;;5034543;28;20048;-44
2023/12/15 01:52:19;;;;;;;1.10;1.00;;;11.90;99.90;;;;;;5033675;28;20065;-44
2023/12/15 01:54:44;;;;;;;1.23;0.93;;;11.90;99.90;;;;;;5034075;28;20554;-44
2023/12/15 01:57:11;;;;;;;1.20;1.08;;;11.90;99.90;;;;;;5034443;28;20036;-44
2023/12/15 01:59:48;;;;;;;1.25;0.82;;;11.90;99.90;;;;;;5034439;28;20410;-44
2023/12/15 02:02:15;;;;;;;1.40;1.05;;;11.90;99.90;;;;;;5035198;28;20387;-44
2023/12/15 02:04:41;;;;;;;1.77;1.05;;;11.90;99.90;;;;;;5034735;28;20022;-44
2023/12/15 02:07:07;;;;;;;1.08;0.80;;;11.90;99.90;;;;;;5034045;28;20029;-44
2023/12/15 02:09:32;;;;;;;1.10;0.90;;;11.90;99.90;;;;;;5033707;28;20113;-44
2023/12/15 02:11:58;;;;;;;1.08;0.98;;;11.90;99.90;;;;;;5034182;28;20033;-43
2023/12/15 02:14:24;;;;;;;1.42;1.00;;;11.90;99.90;;;;;;5034380;28;20514;-44
2023/12/15 02:16:50;;;;;;;1.30;1.00;;;11.90;99.90;;;;;;5034741;28;20052;-44
2023/12/15 02:19:16;;;;;;;1.35;0.90;;;11.90;99.90;;;;;;5033914;28;20472;-44
2023/12/15 02:21:42;;;;;;;1.23;0.93;;;11.90;99.90;;;;;;5032932;28;20036;-44
2023/12/15 02:24:07;;;;;;;1.00;0.80;;;11.90;99.90;;;;;;5033640;28;20068;-44
2023/12/15 02:26:33;;;;;;;1.10;1.00;;;11.90;99.90;;;;;;5034178;28;20026;-44
2023/12/15 02:28:58;;;;;;;1.13;0.95;;;11.90;99.90;;;;;;5033687;28;20453;-44
2023/12/15 02:31:24;;;;;;;1.13;1.00;;;11.90;99.90;;;;;;5033603;28;20403;-43
2023/12/15 02:33:50;;;;;;;1.40;1.20;;;11.90;99.90;;;;;;5032865;28;20059;-43
2023/12/15 02:36:23;;;;;;;2.92;1.05;;;11.90;99.90;;;;;;5032654;28;20101;-44
2023/12/15 02:38:50;;;;;;;1.70;1.10;;;11.90;99.90;;;;;;5032497;28;20109;-43
2023/12/15 02:41:16;;;;;;;1.23;1.00;;;11.90;99.90;;;;;;5033028;28;20383;-43
2023/12/15 02:43:42;;;;;;;1.67;1.17;;;11.90;99.90;;;;;;5032638;28;20472;-44
2023/12/15 02:46:07;;;;;;;1.38;1.10;;;11.90;99.90;;;;;;5032992;28;20074;-43
2023/12/15 02:48:33;;;;;;;1.45;1.30;;;11.90;99.90;;;;;;5032657;28;20087;-44
2023/12/15 02:51:00;;;;;;;1.35;1.10;;;11.90;99.90;;;;;;5031497;28;20075;-44
2023/12/15 02:53:27;;;;;;;2.03;1.30;;;11.90;99.90;;;;;;5032738;28;20479;-43
2023/12/15 02:55:53;;;;;;;1.42;1.17;;;11.90;99.90;;;;;;5032672;28;20036;-43
2023/12/15 02:58:18;;;;;;;1.55;1.15;;;11.90;99.90;;;;;;5032190;28;20033;-44
2023/12/15 03:00:46;;;;;;;1.42;1.23;;;11.90;99.90;;;;;;5033273;28;20025;-44
2023/12/15 03:03:12;;;;;;;1.35;1.23;;;11.80;99.90;;;;;;5033216;28;20052;-44
2023/12/15 03:05:38;;;;;;;1.33;1.13;;;11.80;99.90;;;;;;5032870;28;20360;-43
2023/12/15 03:08:04;;;;;;;1.30;1.15;;;11.80;99.90;;;;;;5032677;28;20047;-43
2023/12/15 03:10:30;;;;;;;1.33;1.10;;;11.80;99.90;;;;;;5032215;28;20033;-44
2023/12/15 03:12:55;;;;;;;1.23;0.95;;;11.90;99.90;;;;;;5032147;28;20034;-43
2023/12/15 03:15:21;;;;;;;2.35;1.30;;;11.90;99.90;;;;;;5032200;28;20025;-44
2023/12/15 03:17:47;;;;;;;1.88;1.30;;;11.90;99.90;;;;;;5032335;28;20033;-44
2023/12/15 03:20:12;;;;;;;1.23;1.13;;;11.90;99.90;;;;;;5032825;28;20029;-43
2023/12/15 03:22:38;;;;;;;1.98;1.35;;;11.90;99.90;;;;;;5032873;28;20045;-44
2023/12/15 03:25:05;;;;;;;1.40;1.23;;;12.00;99.90;;;;;;5032799;28;20028;-44
2023/12/15 03:27:31;;;;;;;2.28;1.35;;;12.00;99.90;;;;;;5032642;28;20037;-44
2023/12/15 03:29:56;;;;;;;1.65;1.55;;;12.00;99.90;;;;;;5032727;28;20033;-44
2023/12/15 03:32:22;;;;;;;1.42;1.30;;;12.10;99.90;;;;;;5032956;28;20026;-43
2023/12/15 03:34:48;;;;;;;1.20;1.10;;;12.10;99.90;;;;;;5033157;28;20127;-44
2023/12/15 03:37:13;;;;;;;2.10;1.23;;;12.10;99.90;;;;;;5032881;28;20108;-44
2023/12/15 03:39:39;;;;;;;1.30;1.20;;;12.10;99.90;;;;;;5032541;28;20121;-44
2023/12/15 03:42:07;;;;;;;1.30;1.20;;;12.10;99.90;;;;;;5032726;28;20029;-44
2023/12/15 03:44:33;;;;;;;1.70;1.40;;;12.20;99.90;;;;;;5032408;28;20018;-43
2023/12/15 03:46:59;;;;;;;1.60;1.35;;;12.20;99.90;;;;;;5031503;28;20025;-44
2023/12/15 03:49:25;;;;;;;1.55;1.38;;;12.20;99.90;;;;;;5032094;28;20454;-43
2023/12/15 03:51:51;;;;;;;1.55;1.25;;;12.20;99.90;;;;;;5032627;28;20026;-43
2023/12/15 03:54:16;;;;;;;1.75;1.38;;;12.20;99.90;;;;;;5032112;28;20029;-44
2023/12/15 03:56:42;;;;;;;1.50;1.30;;;12.20;99.90;;;;;;5031844;28;20030;-44
2023/12/15 03:59:07;;;;;;;1.92;1.30;;;12.20;99.90;;;;;;5031297;28;20475;-44
2023/12/15 04:01:33;;;;;;;1.63;1.23;;;12.20;99.90;;;;;;5031324;28;20072;-44
2023/12/15 04:03:59;;;;;;;2.38;1.70;;;12.30;99.90;;;;;;5032230;28;20017;-44
2023/12/15 04:06:24;;;;;;;1.42;1.33;;;12.20;99.90;;;;;;5032276;28;20456;-43
2023/12/15 04:08:50;;;;;;;1.80;1.25;;;12.30;99.90;;;;;;5031983;28;20040;-43
2023/12/15 04:11:17;;;;;;;1.75;1.42;;;12.30;99.90;;;;;;5032166;28;20021;-44
2023/12/15 04:13:43;;;;;;;1.85;1.50;;;12.30;99.90;;;;;;5031742;28;20021;-44
2023/12/15 04:16:08;;;;;;;1.80;1.60;;;12.20;99.90;;;;;;5032502;28;20078;-43
2023/12/15 04:18:34;;;;;;;1.67;1.40;;;12.20;99.90;;;;;;5031101;28;20026;-43
2023/12/15 04:21:03;;;;;;;1.63;1.40;;;12.20;99.90;;;;;;5032448;28;20117;-43
2023/12/15 04:23:29;;;;;;;1.55;1.42;;;12.20;99.90;;;;;;5033208;28;20168;-44
2023/12/15 04:25:57;;;;;;;2.58;1.60;;;12.30;99.90;;;;;;5032245;28;20028;-44
2023/12/15 04:28:25;;;;;;;1.80;1.50;;;12.20;99.90;;;;;;5031575;28;20049;-43
2023/12/15 04:30:50;;;;;;;1.70;1.60;;;12.20;99.90;;;;;;5031993;28;20030;-44
2023/12/15 04:33:16;;;;;;;1.52;1.42;;;12.20;99.90;;;;;;5031308;28;20043;-44
2023/12/15 04:35:42;;;;;;;1.50;1.40;;;12.20;99.90;;;;;;5031790;28;20021;-44
2023/12/15 04:38:08;;;;;;;2.30;1.77;;;12.20;99.90;;;;;;5031625;28;20025;-44
2023/12/15 04:40:34;;;;;;;1.40;1.30;;;12.20;99.90;;;;;;5031371;28;20029;-44
2023/12/15 04:42:59;;;;;;;1.95;1.60;;;12.20;99.90;;;;;;5031886;28;20038;-44
2023/12/15 04:45:25;;;;;;;1.42;1.30;;;12.20;99.90;;;;;;5031980;28;20104;-42
2023/12/15 04:47:50;;;;;;;1.80;1.40;;;12.20;99.90;;;;;;5031726;28;20037;-44
2023/12/15 04:50:16;;;;;;;1.63;1.35;;;12.20;99.90;;;;;;5031045;28;20040;-44
2023/12/15 04:52:42;;;;;;;2.47;1.58;;;12.20;99.90;;;;;;5030877;28;20109;-42
2023/12/15 04:55:07;;;;;;;1.80;1.55;;;12.10;99.90;;;;;;5031035;28;20494;-44
2023/12/15 04:57:33;;;;;;;1.77;1.20;;;12.20;99.90;;;;;;5031705;28;20057;-43
2023/12/15 04:59:59;;;;;;;1.80;1.40;;;12.10;99.90;;;;;;5031548;28;20095;-43
2023/12/15 05:02:24;;;;;;;2.30;1.23;;;12.10;99.90;;;;;;5033171;28;20029;-44
2023/12/15 05:04:50;;;;;;;2.60;1.52;;;12.10;99.90;;;;;;5030718;28;20032;-43
2023/12/15 05:07:15;;;;;;;2.17;1.58;;;12.10;99.90;;;;;;5030664;28;20042;-44
2023/12/15 05:09:41;;;;;;;1.65;1.55;;;12.10;99.90;;;;;;5030860;28;20025;-44
2023/12/15 05:12:08;;;;;;;1.50;1.30;;;12.10;99.90;;;;;;5034394;28;20026;-44
2023/12/15 05:14:36;;;;;;;1.77;1.27;;;12.10;99.90;;;;;;5034517;28;20502;-44
2023/12/15 05:17:03;;;;;;;1.95;1.20;;;12.10;99.90;;;;;;5035897;28;20056;-43
2023/12/15 05:19:28;;;;;;;1.70;1.40;;;12.10;99.90;;;;;;5034867;28;20032;-44
2023/12/15 05:21:54;;;;;;;2.05;1.40;;;12.10;99.90;;;;;;5034319;28;20018;-44
2023/12/15 05:24:20;;;;;;;1.90;1.33;;;12.10;99.90;;;;;;5035708;28;20021;-44
2023/12/15 05:26:45;;;;;;;1.73;1.42;;;12.10;99.90;;;;;;5034879;28;20036;-43
2023/12/15 05:29:11;;;;;;;1.85;1.40;;;12.10;99.90;;;;;;5035676;28;20033;-43
2023/12/15 05:31:38;;;;;;;2.00;1.70;;;12.10;99.90;;;;;;5034459;28;20073;-44
2023/12/15 05:34:03;;;;;;;1.65;1.40;;;12.00;99.90;;;;;;5033924;28;20048;-43
2023/12/15 05:36:29;;;;;;;2.03;1.60;;;12.10;99.90;;;;;;5033734;28;20468;-43
2023/12/15 05:38:55;;;;;;;1.90;1.42;;;12.00;99.90;;;;;;5034222;28;20026;-44
2023/12/15 05:41:20;;;;;;;3.22;1.60;;;12.00;99.90;;;;;;5034297;28;20468;-43
2023/12/15 05:43:46;;;;;;;1.90;1.50;;;12.00;99.90;;;;;;5033903;28;20029;-44
2023/12/15 05:46:12;;;;;;;1.60;1.40;;;12.00;99.90;;;;;;5034246;28;20022;-43
2023/12/15 05:48:38;;;;;;;1.67;1.58;;;12.00;99.90;;;;;;5035193;28;20044;-43
2023/12/15 05:51:06;;;;;;;1.90;1.63;;;12.00;99.90;;;;;;5034085;28;20465;-43
2023/12/15 05:53:32;;;;;;;1.60;1.50;;;12.00;99.90;;;;;;5033659;28;20076;-44
2023/12/15 05:55:57;;;;;;;1.63;1.45;;;12.00;99.90;;;;;;5034310;28;20053;-43
2023/12/15 05:58:23;;;;;;;1.70;1.60;;;12.00;99.90;;;;;;5034326;28;20480;-43
2023/12/15 06:00:49;;;;;;;1.90;1.60;;;12.00;99.90;;;;;;5033763;28;20029;-44
2023/12/15 06:03:17;;;;;;;2.97;1.73;;;12.00;99.90;;;;;;5033953;28;20024;-44
2023/12/15 06:05:43;;;;;;;1.75;1.52;;;12.00;99.90;;;;;;5034377;28;20029;-44
2023/12/15 06:08:09;;;;;;;2.55;1.80;;;11.90;99.90;;;;;;5035148;28;20025;-44
2023/12/15 06:10:36;;;;;;;2.05;1.60;;;11.90;99.90;;;;;;5033827;28;20026;-43
2023/12/15 06:13:01;;;;;;;2.97;2.00;;;12.00;99.90;;;;;;5034468;28;20025;-43
2023/12/15 06:15:27;;;;;;;2.63;1.65;;;11.90;99.90;;;;;;5034443;28;20029;-44
2023/12/15 06:17:52;;;;;;;2.22;1.73;;;11.90;99.90;;;;;;5034270;28;20033;-43
2023/12/15 06:20:18;;;;;;;2.17;1.60;;;11.90;99.90;;;;;;5033055;28;20038;-44
2023/12/15 06:22:44;;;;;;;1.80;1.70;;;11.90;99.90;;;;;;5033068;28;20121;-43
2023/12/15 06:25:09;;;;;;;2.45;1.58;;;11.90;99.90;;;;;;5033637;28;20219;-44
2023/12/15 06:27:35;;;;;;;2.05;1.70;;;11.90;99.90;;;;;;5033859;28;20037;-44
2023/12/15 06:30:01;;;;;;;1.60;1.50;;;11.90;99.90;;;;;;5033819;28;20100;-44
2023/12/15 06:32:26;;;;;;;1.73;1.58;;;11.90;99.90;;;;;;5033751;28;20105;-43
2023/12/15 06:34:52;;;;;;;2.65;1.75;;;11.90;99.90;;;;;;5034164;28;20449;-42
2023/12/15 06:37:18;;;;;;;2.15;1.77;;;11.90;99.90;;;;;;5032886;28;20033;-43
2023/12/15 06:39:47;;;;;;;2.00;1.77;;;11.90;99.90;;;;;;5033148;28;20021;-44
2023/12/15 06:42:12;;;;;;;1.80;1.50;;;11.90;99.90;;;;;;5033553;28;20026;-44
2023/12/15 06:44:39;;;;;;;1.92;1.63;;;11.90;99.90;;;;;;5034084;28;20140;-44
2023/12/15 06:47:05;;;;;;;1.83;1.58;;;11.90;99.90;;;;;;5033817;28;20116;-44
2023/12/15 06:49:31;;;;;;;2.17;1.63;;;11.90;99.90;;;;;;5032742;28;20101;-43
2023/12/15 06:52:00;;;;;;;1.95;1.70;;;11.90;99.90;;;;;;5032472;28;20051;-44
2023/12/15 06:54:26;;;;;;;2.17;1.80;;;11.90;99.90;;;;;;5032463;28;20029;-44
2023/12/15 06:56:51;;;;;;;2.13;1.70;;;11.80;99.90;;;;;;5033218;28;20042;-43
2023/12/15 06:59:17;;;;;;;2.28;1.60;;;11.90;99.90;;;;;;5033378;28;20040;-43
2023/12/15 07:01:42;;;;;;;1.60;1.50;;;11.80;99.90;;;;;;5032978;28;20026;-43
2023/12/15 07:04:08;;;;;;;1.48;1.38;;;11.80;99.90;;;;;;5033717;28;20022;-42
2023/12/15 07:06:34;;;;;;;2.00;1.80;;;11.80;99.90;;;;;;5033069;28;20025;-44
2023/12/15 07:08:59;;;;;;;1.63;1.52;;;11.90;99.90;;;;;;5032914;28;20025;-44
2023/12/15 07:11:25;;;;;;;1.88;1.70;;;11.80;99.90;;;;;;5032200;28;20026;-44
2023/12/15 07:13:51;;;;;;;3.25;1.48;;;11.80;99.90;;;;;;5032702;28;20028;-43
2023/12/15 07:16:16;;;;;;;3.33;2.20;;;11.80;99.90;;;;;;5032284;28;20017;-43
2023/12/15 07:18:42;;;;;;;4.25;2.78;;;11.80;99.90;;;;;;5033182;28;20029;-44
2023/12/15 07:21:08;;;;;;;4.13;2.78;;;11.80;99.90;;;;;;5032779;28;20498;-44
2023/12/15 07:23:34;;;;;;;4.65;2.88;;;11.70;99.90;;;;;;5033173;28;20040;-44
2023/12/15 07:26:00;;;;;;;3.80;2.72;;;11.70;99.90;;;;;;5031762;28;20025;-43
2023/12/15 07:28:26;;;;;;;3.60;2.65;;;11.70;99.90;;;;;;5032790;28;20051;-43
2023/12/15 07:30:52;;;;;;;3.17;2.88;;;11.70;99.90;;;;;;5033028;28;20418;-42
2023/12/15 07:33:18;;;;;;;5.03;2.70;;;11.70;99.90;;;;;;5032374;28;20082;-44
2023/12/15 07:35:43;;;;;;;3.50;2.90;;;11.70;99.90;;;;;;5032332;28;20025;-44
2023/12/15 07:38:09;;;;;;;4.03;2.88;;;11.70;99.90;;;;;;5032921;28;20025;-43
2023/12/15 07:40:35;;;;;;;3.47;2.65;;;11.70;99.90;;;;;;5032640;28;20018;-43
2023/12/15 07:43:01;;;;;;;4.13;2.92;;;11.70;99.90;;;;;;5032017;28;20032;-40
2023/12/15 07:45:27;;;;;;;2.75;2.45;;;11.70;99.90;;;;;;5031609;28;20115;-43
2023/12/15 07:47:53;;;;;;;3.15;2.53;;;11.70;99.90;;;;;;5032439;28;20026;-43
2023/12/15 07:50:20;;;;;;;3.10;2.58;;;11.70;99.90;;;;;;5032103;28;20479;-41
2023/12/15 07:52:46;;;;;;;3.58;2.75;;;11.70;99.90;;;;;;5032598;28;20096;-43
2023/12/15 07:55:11;;;;;;;4.82;3.22;;;11.70;99.90;;;;;;5031717;28;20053;-44
2023/12/15 07:57:37;;;;;;;6.63;3.50;;;11.70;99.90;;;;;;5031359;28;20491;-46
2023/12/15 08:00:05;;;;;;;3.17;2.85;;;11.80;99.90;;;;;;5031346;28;20056;-44
2023/12/15 08:02:31;;;;;;;5.07;3.78;;;11.70;99.90;;;;;;5031222;28;20060;-44
2023/12/15 08:04:57;;;;;;;8.02;4.97;;;11.70;99.90;;;;;;5031345;28;20057;-44
2023/12/15 08:07:22;;;;;;;10.35;4.70;;;11.70;99.90;;;;;;5031157;28;20079;-45
2023/12/15 08:09:48;;;;;;;6.13;4.40;;;11.70;99.90;;;;;;5031187;28;20026;-44
2023/12/15 08:12:13;;;;;;;6.85;3.78;;;11.70;99.90;;;;;;5031398;28;20038;-43
2023/12/15 08:14:39;;;;;;;4.35;3.60;;;11.70;99.90;;;;;;5031356;28;20029;-45
2023/12/15 08:17:05;;;;;;;5.13;3.75;;;11.70;99.90;;;;;;5031006;28;20033;-44
2023/12/15 08:19:31;;;;;;;5.57;3.60;;;11.70;99.90;;;;;;5031054;28;20045;-43
2023/12/15 08:21:58;;;;;;;5.28;3.30;;;11.70;99.90;;;;;;5031074;28;20036;-45
2023/12/15 08:24:23;;;;;;;7.57;3.47;;;11.60;99.90;;;;;;5031083;28;20025;-44
2023/12/15 08:26:49;;;;;;;3.42;3.03;;;11.60;99.90;;;;;;5030991;28;20491;-45
2023/12/15 08:29:15;;;;;;;4.50;3.40;;;11.70;99.90;;;;;;5030953;28;20022;-44
2023/12/15 08:31:41;;;;;;;5.43;3.47;;;11.70;99.90;;;;;;5030941;28;20088;-43
2023/12/15 08:34:06;;;;;;;6.30;3.60;;;11.70;99.90;;;;;;5031008;28;20442;-44
2023/12/15 08:36:32;;;;;;;6.18;3.75;;;11.70;99.90;;;;;;5031244;28;20495;-44
2023/12/15 08:38:57;;;;;;;5.97;4.10;;;11.70;99.90;;;;;;5030898;28;20076;-44
2023/12/15 08:41:23;;;;;;;7.10;3.97;;;11.70;99.90;;;;;;5030809;28;20098;-43
2023/12/15 08:43:49;;;;;;;5.80;4.07;;;11.70;99.90;;;;;;5031011;28;20492;-43
2023/12/15 08:46:14;;;;;;;5.97;4.07;;;11.70;99.90;;;;;;5032072;28;20029;-44
2023/12/15 08:48:40;;;;;;;6.25;4.05;;;11.70;99.90;;;;;;5034664;28;20095;-44
2023/12/15 08:51:06;;;;;;;6.13;4.40;;;11.70;99.90;;;;;;5034688;28;20459;-43
2023/12/15 08:53:31;;;;;;;5.45;4.10;;;11.70;99.90;;;;;;5034656;28;20053;-43
2023/12/15 08:55:57;;;;;;;7.22;3.65;;;11.80;99.90;;;;;;5034458;28;20037;-43
2023/12/15 08:58:23;;;;;;;5.95;3.53;;;11.80;99.90;;;;;;5034660;28;20107;-43
2023/12/15 09:00:49;;;;;;;4.00;3.28;;;11.80;99.90;;;;;;5034465;28;20040;-45
2023/12/15 09:03:14;;;;;;;4.22;3.47;;;11.80;99.90;;;;;;5035202;28;20468;-45
2023/12/15 09:05:40;;;;;;;5.13;3.20;;;11.80;99.90;;;;;;5035658;28;20072;-43
2023/12/15 09:08:06;;;;;;;6.13;3.20;;;11.90;99.90;;;;;;5036280;28;20026;-44
2023/12/15 09:10:34;;;;;;;4.45;3.25;;;11.90;99.90;;;;;;5035344;28;20523;-45
2023/12/15 09:13:02;;;;;;;4.75;3.33;;;12.00;99.90;;;;;;5035316;28;20029;-44
2023/12/15 09:15:28;;;;;;;4.65;3.10;;;12.10;99.90;;;;;;5034943;28;20399;-44
2023/12/15 09:17:54;;;;;;;4.20;3.40;;;12.10;99.90;;;;;;5035024;28;20496;-43
2023/12/15 09:20:20;;;;;;;4.22;3.50;;;12.20;99.90;;;;;;5034676;28;20216;-43
2023/12/15 09:22:46;;;;;;;4.28;3.30;;;12.30;99.90;;;;;;5034326;28;20040;-44
2023/12/15 09:25:12;;;;;;;4.13;3.17;;;12.30;99.90;;;;;;5035071;28;20017;-45
2023/12/15 09:27:38;;;;;;;4.32;3.22;;;12.30;99.90;;;;;;5034006;28;20502;-44
2023/12/15 09:30:04;;;;;;;4.80;2.90;;;12.40;99.90;;;;;;5034497;28;20021;-44
2023/12/15 09:32:29;;;;;;;3.53;3.20;;;12.50;99.90;;;;;;5034180;28;20041;-42
2023/12/15 09:34:55;;;;;;;3.95;3.20;;;12.60;99.90;;;;;;5033967;28;20034;-42
2023/12/15 09:37:20;;;;;;;3.53;2.95;;;12.60;99.90;;;;;;5034366;28;20041;-44
2023/12/15 09:39:46;;;;;;;3.08;2.75;;;12.70;99.90;;;;;;5035149;28;20438;-42
2023/12/15 09:42:12;;;;;;;3.83;3.10;;;12.70;99.90;;;;;;5034062;28;20034;-43
2023/12/15 09:44:37;;;;;;;4.47;3.03;;;12.80;99.90;;;;;;5033980;28;20386;-44
2023/12/15 09:47:05;;;;;;;3.20;2.80;;;12.80;99.90;;;;;;5033702;28;20021;-44
2023/12/15 09:49:32;;;;;;;3.50;2.97;;;12.90;99.90;;;;;;5034190;28;20343;-44
2023/12/15 09:52:02;;;;;;;4.43;3.45;;;12.90;99.90;;;;;;5034209;28;20079;-45
2023/12/15 09:54:28;;;;;;;4.03;3.00;;;13.00;99.90;;;;;;5034055;28;20029;-43
2023/12/15 09:56:55;;;;;;;4.05;3.05;;;13.00;99.90;;;;;;5034065;28;20379;-44
2023/12/15 09:59:21;;;;;;;4.47;3.20;;;13.10;99.90;;;;;;5033274;28;20104;-43
2023/12/15 10:01:47;;;;;;;7.18;3.47;;;13.10;99.90;;;;;;5033227;28;20030;-44
2023/12/15 10:04:13;;;;;;;4.65;3.90;;;13.20;99.90;;;;;;5033688;28;20391;-45
2023/12/15 10:06:38;;;;;;;5.47;3.20;;;13.20;99.90;;;;;;5033178;28;20479;-44
2023/12/15 10:09:12;;;;;;;4.53;3.33;;;13.20;99.90;;;;;;5033217;28;20030;-44
2023/12/15 10:11:40;;;;;;;6.90;3.47;;;13.20;99.90;;;;;;5035431;28;20033;-44
2023/12/15 10:14:09;;;;;;;4.50;3.58;;;13.20;99.90;;;;;;5034540;28;20032;-44
2023/12/15 10:16:36;;;;;;;3.80;3.10;;;13.30;99.90;;;;;;5033417;28;20040;-44
2023/12/15 10:19:03;;;;;;;3.58;2.75;;;13.30;99.90;;;;;;5033556;28;20034;-44
2023/12/15 10:21:31;;;;;;;4.85;3.17;;;13.40;99.90;;;;;;5034430;28;20102;-44
2023/12/15 10:23:57;;;;;;;3.70;2.90;;;13.50;99.90;;;;;;5034529;28;20021;-43
2023/12/15 10:26:22;;;;;;;3.67;3.10;;;13.50;99.90;;;;;;5033787;28;20024;-44
2023/12/15 10:28:48;;;;;;;3.80;3.22;;;13.50;99.90;;;;;;5033574;28;20026;-44
2023/12/15 10:31:14;;;;;;;4.82;3.33;;;13.60;99.90;;;;;;5033922;28;20076;-43
2023/12/15 10:33:43;;;;;;;3.50;3.00;;;13.60;99.90;;;;;;5034422;28;20444;-42
2023/12/15 10:36:12;;;;;;;4.63;3.17;;;13.60;99.90;;;;;;5034486;28;20036;-45
2023/12/15 10:38:38;;;;;;;4.47;3.10;;;13.70;99.90;;;;;;5032615;28;20491;-45
2023/12/15 10:41:05;;;;;;;4.25;2.95;;;13.70;99.90;;;;;;5033435;28;20033;-43
2023/12/15 10:43:33;;;;;;;4.25;2.90;;;13.70;99.90;;;;;;5033536;28;20047;-42
2023/12/15 10:45:59;;;;;;;4.82;3.10;;;13.80;99.90;;;;;;5033617;28;20022;-44
2023/12/15 10:48:26;;;;;;;3.95;3.30;;;13.80;99.90;;;;;;5032458;28;20079;-44
2023/12/15 10:50:53;;;;;;;3.75;2.90;;;13.80;99.90;;;;;;5032658;28;20037;-44
2023/12/15 10:53:20;;;;;;;3.20;2.83;;;13.90;99.90;;;;;;5033288;28;20021;-44
2023/12/15 10:55:46;;;;;;;3.53;2.70;;;13.90;99.90;;;;;;5033843;28;20052;-44
2023/12/15 10:58:15;;;;;;;3.78;2.55;;;14.00;99.90;;;;;;5032203;28;20100;-44
2023/12/15 11:00:41;;;;;;;3.38;2.70;;;14.00;99.90;;;;;;5032843;28;20025;-44
2023/12/15 11:03:11;;;;;;;4.55;2.90;;;14.00;99.90;;;;;;5032670;28;20060;-45
2023/12/15 11:05:40;;;;;;;3.38;2.28;;;14.00;99.90;;;;;;5032805;28;20018;-44
2023/12/15 11:08:06;;;;;;;3.38;2.67;;;14.00;99.90;;;;;;5021778;28;20685;-44
2023/12/15 11:10:32;;;;;;;4.75;3.08;;;14.10;99.90;;;;;;5024431;28;20432;-44
2023/12/15 11:12:58;;;;;;;4.38;3.13;;;14.10;99.90;;;;;;5032523;28;20076;-45
2023/12/15 11:15:25;;;;;;;5.25;3.17;;;14.00;99.90;;;;;;5031831;28;20029;-45
2023/12/15 11:17:55;;;;;;;6.50;3.53;;;14.10;99.90;;;;;;5032929;28;20033;-43
2023/12/15 11:20:20;;;;;;;3.75;3.00;;;14.20;99.90;;;;;;5032819;28;20026;-45
2023/12/15 11:22:58;;;;;;;4.60;3.15;;;14.20;99.90;;;;;;5032855;28;20037;-43
2023/12/15 11:25:32;;;;;;;4.00;3.00;;;14.20;99.90;;;;;;5032620;28;20487;-44
2023/12/15 11:27:59;;;;;;;4.95;3.17;;;14.30;99.90;;;;;;5032961;28;20029;-45
2023/12/15 11:30:29;;;;;;;3.90;2.72;;;14.30;99.90;;;;;;5032346;28;20434;-43
2023/12/15 11:32:55;;;;;;;3.58;2.95;;;14.30;99.90;;;;;;5032789;28;20026;-45
2023/12/15 11:35:33;;;;;;;2.85;2.58;;;14.30;99.90;;;;;;5032130;28;20060;-45
2023/12/15 11:37:59;;;;;;;3.38;2.80;;;14.40;99.90;;;;;;5032602;28;20065;-45
2023/12/15 11:40:29;;;;;;;3.35;2.47;;;14.40;99.90;;;;;;5032269;28;20044;-42
2023/12/15 11:42:56;;;;;;;5.53;2.85;;;14.40;99.90;;;;;;5032574;28;20021;-43
2023/12/15 11:45:24;;;;;;;2.97;2.58;;;14.50;99.90;;;;;;5031910;28;20108;-45
2023/12/15 11:47:51;;;;;;;2.60;2.35;;;14.50;99.90;;;;;;5032334;28;20033;-45
2023/12/15 11:50:19;;;;;;;2.60;2.15;;;14.60;99.90;;;;;;5031459;28;20118;-45
2023/12/15 11:52:45;;;;;;;3.35;2.28;;;14.60;99.90;;;;;;5032196;28;20028;-44
2023/12/15 11:55:11;;;;;;;3.58;2.17;;;14.60;99.90;;;;;;5033245;28;20120;-44
2023/12/15 11:57:37;;;;;;;6.90;2.50;;;14.70;99.90;;;;;;5031271;28;20391;-42
2023/12/15 12:00:03;;;;;;;4.28;2.10;;;14.70;99.90;;;;;;5032311;28;20025;-44
2023/12/15 12:02:29;;;;;;;4.03;2.38;;;14.70;99.90;;;;;;5032947;28;20044;-44
2023/12/15 12:04:55;;;;;;;2.92;1.83;;;14.80;99.90;;;;;;5032639;28;20025;-45
2023/12/15 12:07:21;;;;;;;3.85;2.10;;;14.80;99.90;;;;;;5031497;28;20037;-44
2023/12/15 12:09:49;;;;;;;3.38;2.22;;;14.80;99.90;;;;;;5032315;28;20029;-44
2023/12/15 12:12:14;;;;;;;2.75;2.22;;;14.80;99.80;;;;;;5031390;28;20030;-45
2023/12/15 12:14:42;;;;;;;2.95;2.08;;;14.90;99.80;;;;;;5032392;28;20025;-45
2023/12/15 12:17:12;;;;;;;2.47;1.92;;;14.90;99.80;;;;;;5032135;28;20026;-44
2023/12/15 12:19:44;;;;;;;2.72;2.08;;;15.00;99.80;;;;;;5031332;28;20033;-44
2023/12/15 12:22:13;;;;;;;2.63;1.80;;;15.00;99.70;;;;;;5033828;28;20030;-44
2023/12/15 12:24:39;;;;;;;3.67;2.25;;;15.00;99.70;;;;;;5035583;28;20032;-45
2023/12/15 12:27:10;;;;;;;3.83;2.30;;;15.00;99.60;;;;;;5036963;28;20029;-43
2023/12/15 12:29:39;;;;;;;2.70;1.90;;;15.10;99.60;;;;;;5035140;28;20543;-44
2023/12/15 12:32:06;;;;;;;3.42;2.30;;;15.10;99.60;;;;;;5035828;28;20387;-43
2023/12/15 12:34:31;;;;;;;2.53;2.00;;;15.10;99.60;;;;;;5035701;28;20045;-44
2023/12/15 12:36:57;;;;;;;3.97;2.22;;;15.10;99.60;;;;;;5035611;28;20021;-44
2023/12/15 12:39:23;;;;;;;2.10;1.90;;;15.10;99.50;;;;;;5035174;28;20021;-45
2023/12/15 12:41:49;;;;;;;3.47;1.80;;;15.20;99.50;;;;;;5037043;28;20045;-44